»·PEaware :: N221XG KTRK-KTVL

N221XG :: KTRK-KTVL

FLIGHT INFORMATION

Flight Status: Arrived
Operator: Privately registered:
United States
More flights under this callsign
Pilot: Ryan L. (9775)
Aircraft: BEECH AIRCRAFT SUPER KING AIR 350
(B350)
More flights by this aircraft type
Origin: KTRK Truckee-Tahoe
United States
Destination: KTVL Lake Tahoe
United States
More flights between these airports :: More routes between these airports
Route: TRUCK4 TRUCK
File this flight plan on PilotEdge
Remarks: vectors LDA RWY 18
Altitude:
(Current/Filed)
13,000ft
Speed:
(Current/Filed)
200kts
Departed: 01-Dec-19 07:27 PM
Arrived: 01-Dec-19 07:53 PM
Distance/Time
Traveled:
26nm/0:25
Distance/Time
To Go:
Arrived

Flight Plot

Page will automatically refresh every two minutes.

Flight plan parsing failed; only flown route is shown


Map Options




Map Legend


Flown Route
Filed Route
Departure Airport
Arrival Airport
Navaid (VOR, NDB)
Fix

Horizontal Profiles

Position Reports

Time Latitude Longitude Heading Altitude Ground
Speed
01-Dec-19 19:04 39.317762 -120.140591 208 5904ft 0kts
01-Dec-19 19:05 39.317762 -120.140591 208 5904ft 0kts
01-Dec-19 19:06 39.317762 -120.140591 208 5904ft 0kts
01-Dec-19 19:07 39.317762 -120.140591 208 5904ft 0kts
01-Dec-19 19:08 39.317762 -120.140591 208 5904ft 0kts
01-Dec-19 19:09 39.317762 -120.140591 208 5904ft 0kts
01-Dec-19 19:10 39.317762 -120.140591 208 5904ft 0kts
01-Dec-19 19:11 39.317762 -120.140591 208 5904ft 0kts
01-Dec-19 19:12 39.317762 -120.140591 208 5904ft 0kts
01-Dec-19 19:13 39.317762 -120.140591 208 5904ft 0kts
01-Dec-19 19:14 39.317762 -120.140591 208 5904ft 0kts
01-Dec-19 19:15 39.317762 -120.140591 208 5904ft 0kts
01-Dec-19 19:16 39.317762 -120.140592 208 5904ft 0kts
01-Dec-19 19:17 39.317762 -120.140592 208 5904ft 0kts
01-Dec-19 19:18 39.317762 -120.140592 208 5904ft 0kts
01-Dec-19 19:19 39.317762 -120.140592 208 5904ft 0kts
01-Dec-19 19:20 39.317282 -120.139081 122 5904ft 9kts
01-Dec-19 19:21 39.316645 -120.136230 120 5904ft 14kts
01-Dec-19 19:22 39.314756 -120.131873 90 5904ft 0kts
01-Dec-19 19:23 39.314756 -120.131873 90 5904ft 0kts
01-Dec-19 19:24 39.314756 -120.131873 90 5904ft 0kts
01-Dec-19 19:25 39.315019 -120.131563 26 5904ft 5kts
01-Dec-19 19:26 39.325252 -120.152911 306 6358ft 146kts
01-Dec-19 19:27 39.365483 -120.179767 345 8492ft 180kts
01-Dec-19 19:28 39.420339 -120.175397 23 9585ft 237kts
01-Dec-19 19:29 39.476638 -120.177097 284 11753ft 186kts
01-Dec-19 19:30 39.449708 -120.208645 199 13003ft 169kts
01-Dec-19 19:31 39.404778 -120.226850 185 12984ft 172kts
01-Dec-19 19:32 39.398051 -120.170122 36 13005ft 238kts
01-Dec-19 19:33 39.439736 -120.195563 244 13004ft 167kts
01-Dec-19 19:34 39.399973 -120.217455 197 13007ft 173kts
01-Dec-19 19:35 39.350458 -120.229808 193 12998ft 186kts
01-Dec-19 19:36 39.299357 -120.241876 193 12995ft 184kts
01-Dec-19 19:37 39.249109 -120.253688 193 12995ft 181kts
01-Dec-19 19:38 39.199576 -120.265301 193 13003ft 180kts
01-Dec-19 19:39 39.165490 -120.230150 84 13009ft 234kts
01-Dec-19 19:40 39.202619 -120.158794 80 13026ft 236kts
01-Dec-19 19:41 39.220865 -120.076828 82 12881ft 236kts
01-Dec-19 19:42 39.238266 -119.995250 82 12496ft 229kts
01-Dec-19 19:43 39.216879 -119.948052 191 12520ft 148kts
01-Dec-19 19:44 39.177695 -119.953313 188 10844ft 153kts
01-Dec-19 19:45 39.136023 -119.958904 186 10206ft 147kts
01-Dec-19 19:46 39.095262 -119.964453 185 9848ft 149kts
01-Dec-19 19:47 39.056817 -119.969645 184 9268ft 140kts
01-Dec-19 19:48 39.017916 -119.974903 183 8454ft 138kts
01-Dec-19 19:49 38.981564 -119.974049 176 7291ft 130kts
01-Dec-19 19:50 38.946412 -119.979694 195 7234ft 121kts
01-Dec-19 19:51 38.915425 -119.988865 194 6516ft 112kts
01-Dec-19 19:52 38.893373 -119.995537 204 6269ft 17kts
01-Dec-19 19:53 38.892471 -119.998038 239 6269ft 3kts
01-Dec-19 19:54 38.892369 -119.997959 98 6269ft 0kts
01-Dec-19 19:55 38.892369 -119.997959 98 6269ft 0kts
01-Dec-19 19:56 38.892369 -119.997959 98 6269ft 0kts

Navigation Log

Ident Type
Flight plan parsing failed, navigation log unavailable